Latest Coastal Weather Observations for Cape Leeuwin

IDW60701

Issued at 5:15 am WST Monday 24 November 2014 (issued every 10 minutes, with the page automatically refreshed every 10 minutes)

About coastal observations | Map of coastal stations | Coastal observations for WA | Marine services | Other Formats
Station Details ID: 009518 Name: CAPE LEEUWIN Lat: -34.37 Lon: 115.14 Height: 13.0 m
Data from the previous 72 hours. | See also: Recent months at Cape Leeuwin
Date/Time
WST
Temp

°C
Wind Pressure Rain
since 9am
mm
Weather Cloud Vis
km
Sea
Height
m
Swell
Dir
 
Speed
knots
Gust
knots
hPa Trend Height
m
Period
s
Dir
24/05:00am 14.2 S 9 13 1023.1 - 0.0 - - - - - - -
24/04:30am 14.1 S 7 8 1023.0 - 0.0 - - - - - - -
24/04:00am 14.2 SE 11 16 1022.8 - 0.0 - - - - - - -
24/03:30am 14.1 SE 10 15 1022.6 - 0.0 - - - - - - -
24/03:00am 13.9 SSE 8 12 1022.7 - 0.0 - - - - - - -
24/02:30am 13.8 SSE 9 15 1022.5 - 0.0 - - - - - - -
24/02:00am 14.1 SSE 12 16 1022.6 - 0.0 - - - - - - -
24/01:30am 13.6 SSE 10 14 1022.6 - 0.0 - - - - - - -
24/01:00am 13.8 S 9 16 1022.6 - 0.0 - - - - - - -
24/12:30am 14.0 SSE 10 14 1022.6 - 0.0 - - - - - - -
24/12:00am 13.7 S 10 14 1022.8 - 0.0 - - - - - - -
 
Date/Time
WST
Temp

°C
Wind Pressure Rain
since 9am
mm
Weather Cloud Vis
km
Sea
Height
m
Swell
Dir
 
Speed
knots
Gust
knots
hPa Trend Height
m
Period
s
Dir
23/11:30pm 14.0 S 12 15 1022.8 - 0.0 - - - - - - -
23/11:00pm 14.3 S 12 16 1022.9 - 0.0 - - - - - - -
23/10:30pm 14.4 S 11 17 1022.8 - 0.0 - - - - - - -
23/10:00pm 14.2 S 11 16 1022.8 - 0.0 - - - - - - -
23/09:30pm 14.4 S 12 18 1022.6 - 0.0 - - - - - - -
23/09:00pm 14.0 SSW 12 17 1022.5 - 0.0 - - - - - - -
23/08:30pm 14.2 S 13 17 1022.1 - 0.0 - - - - - - -
23/08:00pm 14.7 S 14 19 1021.9 - 0.0 - - - - - - -
23/07:30pm 14.3 SSW 14 17 1021.8 - 0.0 - - - - - - -
23/07:00pm 14.6 S 13 17 1021.4 - 0.0 - - - - - - -
23/06:30pm 14.9 S 13 18 1021.0 - 0.0 - - - - - - -
23/06:00pm 15.2 S 11 16 1020.6 - 0.0 - - - - - - -
23/05:30pm 15.3 S 12 16 1020.2 - 0.0 - - - - - - -
23/05:00pm 16.3 S 13 18 1019.9 - 0.0 - - - - - - -
23/04:30pm 16.1 SSW 12 18 1019.8 - 0.0 - - - - - - -
23/04:00pm 17.1 S 12 16 1019.6 - 0.0 - - - - - - -
23/03:30pm 17.6 S 12 18 1019.4 - 0.0 - - - - - - -
23/03:00pm 17.1 SSW 13 18 1019.7 - 0.0 - - - - - - -
23/02:30pm 18.0 S 12 17 1019.4 - 0.0 - - - - - - -
23/02:00pm 18.6 S 13 17 1019.4 - 0.0 - - - - - - -
23/01:30pm 17.2 S 12 16 1019.2 - 0.0 - - - - - - -
23/01:00pm 18.0 S 12 17 1018.9 - 0.0 - - - - - - -
23/12:30pm 17.3 S 13 18 1018.8 - 0.0 - - - - - - -
23/12:00pm 16.8 SSW 14 18 1018.7 - 0.0 - - - - - - -
23/11:30am 17.5 SSW 13 18 1018.5 - 0.0 - - - - - - -
23/11:00am 17.8 SSW 14 18 1018.5 - 0.0 - - - - - - -
23/10:30am 17.4 SW 17 21 1018.4 - 0.0 - - - - - - -
23/10:00am 17.3 SW 16 21 1018.1 - 0.0 - - - - - - -
23/09:30am 17.1 SSW 16 23 1017.9 - 0.0 - - - - - - -
23/09:00am 17.6 SW 15 19 1017.6 - 0.4 - - - - - - -
23/08:30am 16.2 SW 18 22 1017.6 - 0.4 - - - - - - -
23/08:00am 16.6 SW 19 23 1017.2 - 0.4 - - - - - - -
23/07:30am 16.1 SW 19 23 1016.9 - 0.4 - - - - - - -
23/07:00am 16.0 SW 19 24 1016.4 - 0.4 - - - - - - -
23/06:30am 16.5 SW 23 29 1015.9 - 0.4 - - - - - - -
23/06:00am 16.1 SW 23 29 1015.5 - 0.4 - - - - - - -
23/05:30am 15.9 SW 23 29 1015.1 - 0.4 - - - - - - -
23/05:00am 16.0 SW 24 30 1014.5 - 0.4 - - - - - - -
23/04:30am 16.0 SW 23 29 1014.2 - 0.4 - - - - - - -
23/04:00am 14.9 SW 21 26 1014.0 - 0.4 - - - - - - -
23/03:30am 15.3 WSW 24 30 1013.6 - 0.4 - - - - - - -
23/03:08am 15.7 W 21 32 1013.4 - 0.0 - - - - - - -
23/03:00am 16.3 W 22 27 1013.3 - 0.0 - - - - - - -
23/02:30am 15.6 W 21 26 1013.4 - 0.0 - - - - - - -
23/02:00am 15.2 WSW 29 36 1013.4 - 0.0 - - - - - - -
23/01:30am 17.0 W 24 27 1013.4 - 0.0 - - - - - - -
23/01:00am 17.0 W 22 26 1013.6 - 0.0 - - - - - - -
23/12:30am 16.6 W 24 30 1013.7 - 0.0 - - - - - - -
23/12:00am 15.8 W 25 30 1014.0 - 0.0 - - - - - - -
 
Date/Time
WST
Temp

°C
Wind Pressure Rain
since 9am
mm
Weather Cloud Vis
km
Sea
Height
m
Swell
Dir
 
Speed
knots
Gust
knots
hPa Trend Height
m
Period
s
Dir
22/11:30pm 17.0 W 23 27 1014.0 - 0.0 - - - - - - -
22/11:00pm 16.4 W 21 25 1014.1 - 0.0 - - - - - - -
22/10:30pm 16.8 WSW 25 30 1014.4 - 0.0 - - - - - - -
22/10:00pm 16.4 WSW 25 30 1014.5 - 0.0 - - - - - - -
22/09:30pm 16.6 W 20 24 1014.6 - 0.0 - - - - - - -
22/09:00pm 17.0 W 22 27 1014.5 - 0.0 - - - - - - -
22/08:30pm 17.0 W 26 31 1014.3 - 0.0 - - - - - - -
22/08:00pm 16.1 W 23 28 1014.4 - 0.0 - - - - - - -
22/07:30pm 16.8 W 22 27 1014.2 - 0.0 - - - - - - -
22/07:00pm 16.9 W 22 28 1014.2 - 0.0 - - - - - - -
22/06:30pm 16.9 W 20 24 1014.0 - 0.0 - - - - - - -
22/06:00pm 17.2 W 19 22 1013.8 - 0.0 - - - - - - -
22/05:30pm 17.2 W 20 24 1013.5 - 0.0 - - - - - - -
22/05:00pm 17.1 W 20 24 1013.6 - 0.0 - - - - - - -
22/04:30pm 17.2 W 20 23 1013.8 - 0.0 - - - - - - -
22/04:00pm 17.6 W 19 22 1013.6 - 0.0 - - - - - - -
22/03:30pm 17.7 W 17 20 1013.7 - 0.0 - - - - - - -
22/03:00pm 18.7 W 15 18 1013.8 - 0.0 - - - - - - -
22/02:30pm 19.0 W 14 17 1013.9 - 0.0 - - - - - - -
22/02:00pm 18.5 W 17 20 1014.0 - 0.0 - - - - - - -
22/01:30pm 18.6 W 16 20 1013.9 - 0.0 - - - - - - -
22/01:00pm 18.7 WSW 15 19 1014.0 - 0.0 - - - - - - -
22/12:30pm 18.5 W 15 20 1014.1 - 0.0 - - - - - - -
22/12:00pm 18.7 WSW 15 18 1014.1 - 0.0 - - - - - - -
22/11:30am 17.5 WSW 15 18 1014.2 - 0.0 - - - - - - -
22/11:00am 18.0 WSW 13 17 1014.0 - 0.0 - - - - - - -
22/10:30am 18.6 WSW 13 17 1013.9 - 0.0 - - - - - - -
22/10:00am 18.0 WSW 12 16 1013.9 - 0.0 - - - - - - -
22/09:30am 17.5 SW 14 18 1013.9 - 0.0 - - - - - - -
22/09:00am 17.1 SW 15 20 1013.8 - 2.6 - - - - - - -
22/08:30am 16.8 SW 15 19 1013.8 - 2.6 - - - - - - -
22/08:00am 16.2 SW 16 19 1013.5 - 2.6 - - - - - - -
22/07:30am 15.1 SW 19 25 1013.3 - 2.6 - - - - - - -
22/07:00am 15.3 SW 17 22 1013.1 - 2.6 - - - - - - -
22/06:30am 14.7 SW 15 19 1012.9 - 1.8 - - - - - - -
22/06:00am 15.4 WSW 23 28 1012.3 - 1.6 - - - - - - -
22/05:30am 16.2 WSW 16 19 1012.0 - 1.6 - - - - - - -
22/05:00am 15.9 WSW 20 24 1011.7 - 1.6 - - - - - - -
22/04:30am 15.7 W 19 26 1011.5 - 1.6 - - - - - - -
22/04:00am 16.7 W 19 23 1011.2 - 1.6 - - - - - - -
22/03:30am 16.4 W 17 19 1011.2 - 1.6 - - - - - - -
22/03:00am 16.4 W 18 21 1011.3 - 1.6 - - - - - - -
22/02:30am 16.3 W 21 24 1011.1 - 1.6 - - - - - - -
22/02:00am 16.4 W 20 23 1011.2 - 1.6 - - - - - - -
22/01:30am 16.2 WSW 19 23 1011.4 - 1.6 - - - - - - -
22/01:00am 16.0 WNW 13 17 1011.5 - 1.6 - - - - - - -
22/12:30am 16.3 W 14 17 1011.6 - 1.6 - - - - - - -
22/12:00am 15.6 W 13 14 1011.7 - 1.6 Recent precip. - - - - - -
 
Date/Time
WST
Temp

°C
Wind Pressure Rain
since 9am
mm
Weather Cloud Vis
km
Sea
Height
m
Swell
Dir
 
Speed
knots
Gust
knots
hPa Trend Height
m
Period
s
Dir
21/11:30pm 15.0 W 23 27 1012.0 - 1.6 - - - - - - -
21/11:03pm 16.7 W 15 27 1011.9 - 0.8 - - - - - - -
21/11:00pm 16.6 W 13 18 1011.9 - 0.8 - - - - - - -
21/10:30pm 16.5 W 18 21 1012.1 - 0.8 - - - - - - -
21/10:00pm 16.3 WSW 16 21 1012.1 - 0.8 - - - - - - -
21/09:30pm 17.2 WSW 19 22 1012.0 - 0.8 - - - - - - -
21/09:00pm 16.9 W 20 25 1012.0 - 0.8 - - - - - - -
21/08:30pm 16.2 W 19 22 1012.0 - 0.8 - - - - - - -
21/08:00pm 17.2 W 17 20 1011.6 - 0.8 - - - - - - -
21/07:30pm 16.8 WSW 19 23 1011.6 - 0.8 - - - - - - -
21/07:00pm 16.5 W 20 25 1011.6 - 0.8 - - - - - - -
21/06:30pm 16.8 W 19 25 1011.2 - 0.8 - - - - - - -
21/06:00pm 17.3 W 17 21 1011.0 - 0.8 - - - - - - -
21/05:30pm 17.4 W 19 22 1010.9 - 0.8 - - - - - - -
21/05:00pm 17.4 W 19 23 1010.7 - 0.8 - - - - - - -
21/04:30pm 17.7 WSW 19 24 1010.8 - 0.8 - - - - - - -
21/04:00pm 18.0 W 19 23 1010.8 - 0.8 - - - - - - -
21/03:30pm 17.1 WSW 19 22 1010.8 - 0.8 - - - - - - -
21/03:19pm 16.9 WSW 20 22 1010.7 - 0.8 - - - - - - -
21/03:00pm 17.3 W 15 21 1010.7 - 0.8 - - - - - - -
21/02:40pm 16.6 W 18 28 1010.7 - 0.8 - - - - - - -
21/02:30pm 17.4 W 16 19 1010.8 - 0.8 - - - - - - -
21/02:00pm 16.9 W 18 23 1010.8 - 0.8 - - - - - - -
21/01:30pm 16.2 W 17 25 1011.0 - 0.6 - - - - - - -
21/01:08pm 17.3 WSW 23 25 1010.8 - 0.0 - - - - - - -
21/01:00pm 18.1 W 22 27 1010.8 - 0.0 - - - - - - -
21/12:30pm 18.8 W 20 24 1010.7 - 0.0 - - - - - - -
21/12:00pm 19.1 W 18 22 1010.8 - 0.0 - - - - - - -
21/11:30am 17.6 W 19 26 1011.0 - 0.0 - - - - - - -
21/11:00am 18.3 W 23 26 1010.9 - 0.0 - - - - - - -
21/10:30am 18.4 W 23 26 1010.9 - 0.0 - - - - - - -
21/10:00am 17.8 W 22 27 1010.8 - 0.0 - - - - - - -
21/09:30am 17.3 W 22 27 1010.7 - 0.0 - - - - - - -
21/09:00am 17.7 W 18 22 1010.5 - 1.6 - - - - - - -
21/08:30am 17.6 W 17 20 1010.4 - 1.6 - - - - - - -
21/08:00am 17.4 W 19 22 1010.4 - 1.6 - - - - - - -
21/07:30am 17.6 WSW 21 24 1010.0 - 1.6 - - - - - - -
21/07:00am 17.0 W 21 25 1009.7 - 1.6 - - - - - - -
21/06:30am 17.2 WSW 20 23 1009.4 - 1.6 - - - - - - -
21/06:00am 17.3 W 24 28 1009.2 - 1.6 - - - - - - -
21/05:30am 17.2 W 20 25 1008.9 - 1.6 - - - - - - -

Other Formats:

Comma delimited format used in spreadsheet applications
http://www.bom.gov.au/fwo/IDW60701/IDW60701.94601.axf

JavaScript Object Notation format (JSON) in row-major order
http://www.bom.gov.au/fwo/IDW60701/IDW60701.94601.json